createdAt,value
2019-05-03T00:00:59.191Z,9.70
2019-05-03T00:03:28.193Z,9.60
2019-05-03T00:06:01.763Z,9.60
2019-05-03T00:08:33.351Z,9.60
2019-05-03T00:11:02.879Z,9.60
2019-05-03T00:13:32.552Z,9.50
2019-05-03T00:16:08.768Z,9.50
2019-05-03T00:18:37.720Z,9.60
2019-05-03T00:21:06.791Z,9.60
2019-05-03T00:23:35.887Z,9.60
2019-05-03T00:26:05.319Z,9.70
2019-05-03T00:28:34.400Z,9.70
2019-05-03T00:31:03.496Z,9.70
2019-05-03T00:33:32.420Z,9.60
2019-05-03T00:36:22.262Z,9.60
2019-05-03T00:38:53.491Z,9.50
2019-05-03T00:41:22.571Z,9.50
2019-05-03T00:43:51.845Z,9.50
2019-05-03T00:46:22.044Z,9.50
2019-05-03T00:48:52.458Z,9.50
2019-05-03T00:51:22.559Z,9.50
2019-05-03T00:53:53.162Z,9.50
2019-05-03T00:56:22.253Z,9.50
2019-05-03T00:58:57.608Z,9.40
2019-05-03T01:01:26.740Z,9.40
2019-05-03T01:03:55.669Z,9.40
2019-05-03T01:06:24.679Z,9.50
2019-05-03T01:08:53.680Z,9.50
2019-05-03T01:11:22.977Z,9.40
2019-05-03T01:13:52.303Z,9.40
2019-05-03T01:16:22.738Z,9.40
2019-05-03T01:18:52.282Z,9.40
2019-05-03T01:21:22.633Z,9.40
2019-05-03T01:23:52.719Z,9.30
2019-05-03T01:26:22.637Z,9.30
2019-05-03T01:28:52.272Z,9.30
2019-05-03T01:31:22.804Z,9.30
2019-05-03T01:33:52.172Z,9.30
2019-05-03T01:36:22.823Z,9.30
2019-05-03T01:38:52.990Z,9.30
2019-05-03T01:41:22.167Z,9.30
2019-05-03T01:43:52.594Z,9.20
2019-05-03T01:46:22.798Z,9.30
2019-05-03T01:49:07.810Z,9.30
2019-05-03T01:51:55.897Z,9.20
2019-05-03T01:54:25.012Z,9.10
2019-05-03T01:56:58.826Z,9.10
2019-05-03T01:59:24.644Z,9.10
2019-05-03T02:02:08.937Z,9.10
2019-05-03T02:04:48.126Z,9.10
2019-05-03T02:07:17.150Z,9.10
2019-05-03T02:09:46.126Z,9.10
2019-05-03T02:12:15.046Z,9.10
2019-05-03T02:14:43.992Z,9.10
2019-05-03T02:17:12.992Z,9.00
2019-05-03T02:19:42.247Z,9.10
2019-05-03T02:22:12.122Z,9.10
2019-05-03T02:24:42.195Z,9.10
2019-05-03T02:27:12.797Z,9.00
2019-05-03T02:29:41.933Z,8.90
2019-05-03T02:32:13.087Z,8.90
2019-05-03T02:34:43.922Z,9.00
2019-05-03T02:37:13.858Z,8.90
2019-05-03T02:39:42.906Z,9.00
2019-05-03T02:42:12.090Z,9.00
2019-05-03T02:44:41.378Z,8.90
2019-05-03T02:47:22.678Z,8.90
2019-05-03T02:49:56.498Z,9.00
2019-05-03T02:52:36.492Z,9.00
2019-05-03T02:55:11.720Z,8.90
2019-05-03T02:57:40.953Z,8.90
2019-05-03T03:00:12.188Z,8.90
2019-05-03T03:02:41.441Z,8.80
2019-05-03T03:05:11.292Z,8.80
2019-05-03T03:07:46.004Z,8.80
2019-05-03T03:10:16.165Z,8.80
2019-05-03T03:12:47.207Z,8.70
2019-05-03T03:15:16.475Z,8.60
2019-05-03T03:17:47.454Z,8.60
2019-05-03T03:20:16.577Z,8.60
2019-05-03T03:22:47.295Z,8.60
2019-05-03T03:25:21.612Z,8.60
2019-05-03T03:27:55.574Z,8.60
2019-05-03T03:30:51.834Z,8.60
2019-05-03T03:33:22.768Z,8.50
2019-05-03T03:35:51.576Z,8.40
2019-05-03T03:38:20.879Z,8.40
2019-05-03T03:40:55.333Z,8.40
2019-05-03T03:43:22.806Z,8.30
2019-05-03T03:45:52.709Z,8.30
2019-05-03T03:48:22.825Z,8.30
2019-05-03T03:50:55.907Z,8.30
2019-05-03T03:53:26.353Z,8.30
2019-05-03T03:55:56.960Z,8.20
2019-05-03T03:58:27.075Z,8.20
2019-05-03T04:00:56.535Z,8.20
2019-05-03T04:03:26.146Z,8.20
2019-05-03T04:05:55.620Z,8.20
2019-05-03T04:08:25.285Z,8.20
2019-05-03T04:10:55.831Z,8.20
2019-05-03T04:13:25.792Z,8.10
2019-05-03T04:16:21.257Z,8.10
2019-05-03T04:19:09.658Z,8.20
2019-05-03T04:21:38.729Z,8.10
2019-05-03T04:24:07.851Z,8.10
2019-05-03T04:26:37.841Z,8.00
2019-05-03T04:29:06.838Z,7.90
2019-05-03T04:31:36.851Z,7.80
2019-05-03T04:34:06.309Z,7.80
2019-05-03T04:36:35.854Z,7.80
2019-05-03T04:39:06.433Z,7.80
2019-05-03T04:41:35.874Z,7.80
2019-05-03T04:44:06.254Z,7.90
2019-05-03T04:46:36.080Z,7.90
2019-05-03T04:49:05.745Z,8.00
2019-05-03T04:51:35.263Z,8.00
2019-05-03T04:54:25.247Z,8.00
2019-05-03T04:56:56.178Z,8.10
2019-05-03T04:59:25.653Z,8.10
2019-05-03T05:01:56.020Z,8.20
2019-05-03T05:04:25.473Z,8.20
2019-05-03T05:06:55.496Z,8.20
2019-05-03T05:09:25.849Z,8.20
2019-05-03T05:11:55.131Z,8.30
2019-05-03T05:14:25.821Z,8.30
2019-05-03T05:16:55.637Z,8.30
2019-05-03T05:19:35.884Z,8.30
2019-05-03T05:22:07.316Z,8.20
2019-05-03T05:24:36.710Z,8.10
2019-05-03T05:27:26.566Z,8.10
2019-05-03T05:29:55.635Z,8.10
2019-05-03T05:32:24.832Z,8.20
2019-05-03T05:34:54.934Z,8.20
2019-05-03T05:37:24.993Z,8.20
2019-05-03T05:39:55.073Z,8.20
2019-05-03T05:42:25.114Z,8.10
2019-05-03T05:44:55.685Z,8.00
2019-05-03T05:47:42.581Z,7.90
2019-05-03T05:50:21.254Z,8.10
2019-05-03T05:52:50.179Z,8.10
2019-05-03T05:55:44.752Z,8.20
2019-05-03T05:58:25.624Z,8.20
2019-05-03T06:00:57.801Z,8.40
2019-05-03T06:03:27.164Z,8.60
2019-05-03T06:05:58.225Z,8.90
2019-05-03T06:08:44.549Z,8.90
2019-05-03T06:11:38.295Z,8.80
2019-05-03T06:14:15.313Z,8.70
2019-05-03T06:16:50.971Z,8.60
2019-05-03T06:19:27.274Z,8.60
2019-05-03T06:22:05.620Z,8.70
2019-05-03T06:24:39.414Z,8.80
2019-05-03T06:27:15.327Z,8.60
2019-05-03T06:29:45.674Z,8.70
2019-05-03T06:32:27.449Z,8.80
2019-05-03T06:34:56.323Z,8.70
2019-05-03T06:37:27.192Z,8.70
2019-05-03T06:39:56.270Z,8.70
2019-05-03T06:42:25.586Z,8.70
2019-05-03T06:44:59.217Z,8.90
2019-05-03T06:47:28.431Z,9.00
2019-05-03T06:49:56.962Z,9.30
2019-05-03T06:52:29.274Z,9.60
2019-05-03T06:55:00.373Z,9.90
2019-05-03T06:57:27.958Z,10.10
2019-05-03T07:00:02.560Z,10.10
2019-05-03T07:02:38.257Z,10.40
2019-05-03T07:05:12.950Z,10.40
2019-05-03T07:07:47.610Z,10.40
2019-05-03T07:10:25.496Z,10.20
2019-05-03T07:13:05.001Z,9.90
2019-05-03T07:15:35.125Z,10.60
2019-05-03T07:18:05.763Z,11.30
2019-05-03T07:20:48.244Z,10.90
2019-05-03T07:23:17.209Z,11.30
2019-05-03T07:25:46.136Z,12.10
2019-05-03T07:28:15.226Z,12.80
2019-05-03T07:30:45.350Z,14.40
2019-05-03T07:33:21.325Z,16.20
2019-05-03T07:35:50.426Z,16.40
2019-05-03T07:38:19.439Z,14.50
2019-05-03T07:40:48.410Z,12.50
2019-05-03T07:43:18.972Z,13.40
2019-05-03T07:45:48.074Z,15.90
2019-05-03T07:48:17.077Z,15.30
2019-05-03T07:50:46.105Z,13.30
2019-05-03T07:53:15.174Z,11.70
2019-05-03T07:56:02.212Z,10.90
2019-05-03T07:58:31.143Z,14.20
2019-05-03T08:01:06.051Z,17.30
2019-05-03T08:03:32.233Z,19.40
2019-05-03T08:06:01.281Z,18.60
2019-05-03T08:08:30.290Z,16.30
2019-05-03T08:10:59.388Z,16.10
2019-05-03T08:13:28.424Z,16.20
2019-05-03T08:15:57.376Z,17.50
2019-05-03T08:18:26.312Z,16.40
2019-05-03T08:20:55.757Z,16.30
2019-05-03T08:23:29.906Z,17.60
2019-05-03T08:25:55.990Z,16.60
2019-05-03T08:28:24.932Z,17.20
2019-05-03T08:31:18.859Z,15.50
2019-05-03T08:34:00.966Z,16.70
2019-05-03T08:36:36.420Z,19.50
2019-05-03T08:39:05.889Z,20.70
2019-05-03T08:41:36.479Z,18.20
2019-05-03T08:44:05.479Z,15.50
2019-05-03T08:46:35.565Z,15.00
2019-05-03T08:49:05.281Z,18.40
2019-05-03T08:51:35.272Z,19.00
2019-05-03T08:54:04.765Z,18.10
2019-05-03T08:56:34.879Z,16.50
2019-05-03T08:59:04.774Z,15.10
2019-05-03T09:01:36.448Z,16.90
2019-05-03T09:04:05.036Z,19.50
2019-05-03T09:06:35.470Z,20.80
2019-05-03T09:09:08.038Z,18.50
2019-05-03T09:11:37.032Z,18.50
2019-05-03T09:14:08.393Z,20.50
2019-05-03T09:16:37.753Z,19.80
2019-05-03T09:19:07.019Z,17.50
2019-05-03T09:21:36.064Z,15.20
2019-05-03T09:24:05.135Z,13.90
2019-05-03T09:26:34.844Z,14.40
2019-05-03T09:29:05.578Z,15.80
2019-05-03T09:31:35.278Z,17.10
2019-05-03T09:34:08.036Z,18.90
2019-05-03T09:36:35.017Z,20.60
2019-05-03T09:39:05.106Z,20.10
2019-05-03T09:41:34.770Z,17.20
2019-05-03T09:44:04.741Z,15.60
2019-05-03T09:46:35.410Z,14.70
2019-05-03T09:49:13.289Z,15.00
2019-05-03T09:51:35.210Z,14.40
2019-05-03T09:54:11.199Z,14.80
2019-05-03T09:56:59.359Z,17.60
2019-05-03T09:59:29.553Z,19.80
2019-05-03T10:01:59.746Z,20.00
2019-05-03T10:04:28.876Z,19.50
2019-05-03T10:06:57.997Z,19.40
2019-05-03T10:09:27.222Z,18.40
2019-05-03T10:11:56.414Z,17.40
2019-05-03T10:14:25.484Z,17.20
2019-05-03T10:17:15.846Z,17.10
2019-05-03T10:19:45.161Z,15.90
2019-05-03T10:22:15.452Z,14.50
2019-05-03T10:24:45.620Z,13.70
2019-05-03T10:27:15.250Z,13.30
2019-05-03T10:29:44.740Z,13.00
2019-05-03T10:32:21.391Z,13.40
2019-05-03T10:35:00.201Z,14.40
2019-05-03T10:37:32.449Z,15.00
2019-05-03T10:40:05.798Z,14.90
2019-05-03T10:42:35.305Z,14.50
2019-05-03T10:45:04.770Z,13.80
2019-05-03T10:47:34.933Z,13.50
2019-05-03T10:50:04.761Z,13.60
2019-05-03T10:52:38.714Z,13.70
2019-05-03T10:55:08.302Z,13.70
2019-05-03T10:57:39.818Z,14.40
2019-05-03T11:00:38.257Z,15.50
2019-05-03T11:02:55.991Z,15.80
2019-05-03T11:05:24.993Z,15.70
2019-05-03T11:07:55.631Z,15.60
2019-05-03T11:10:25.308Z,15.20
2019-05-03T11:12:54.881Z,14.50
2019-05-03T11:15:25.936Z,14.30
2019-05-03T11:17:54.940Z,14.00
2019-05-03T11:20:37.222Z,14.50
2019-05-03T11:23:07.950Z,15.00
2019-05-03T11:25:37.155Z,15.10
2019-05-03T11:28:15.372Z,14.80
2019-05-03T11:30:53.651Z,14.50
2019-05-03T11:33:35.400Z,14.00
2019-05-03T11:36:15.022Z,13.70
2019-05-03T11:38:45.761Z,13.70
2019-05-03T11:41:23.265Z,13.80
2019-05-03T11:43:45.650Z,14.00
2019-05-03T11:46:14.596Z,14.40
2019-05-03T11:48:45.880Z,14.80
2019-05-03T11:51:15.224Z,15.20
2019-05-03T11:53:45.000Z,15.60
2019-05-03T11:56:14.858Z,15.70
2019-05-03T11:58:45.702Z,15.70
2019-05-03T12:01:20.333Z,15.40
2019-05-03T12:03:51.635Z,15.00
2019-05-03T12:06:20.582Z,14.90
2019-05-03T12:08:49.596Z,15.00
2019-05-03T12:11:18.585Z,15.30
2019-05-03T12:13:47.443Z,15.30
2019-05-03T12:16:24.374Z,15.60
2019-05-03T12:18:53.365Z,15.70
2019-05-03T12:21:19.576Z,16.10
2019-05-03T12:23:50.505Z,16.60
2019-05-03T12:26:20.756Z,16.70
2019-05-03T12:28:50.958Z,16.10
2019-05-03T12:31:30.359Z,15.90
2019-05-03T12:33:50.781Z,15.80
2019-05-03T12:36:20.007Z,15.40
2019-05-03T12:38:49.554Z,14.90
2019-05-03T12:41:18.595Z,14.60
2019-05-03T12:43:47.694Z,14.50
2019-05-03T12:46:16.972Z,14.30
2019-05-03T12:48:46.219Z,14.20
2019-05-03T12:51:15.856Z,14.30
2019-05-03T12:53:45.033Z,14.10
2019-05-03T12:56:22.056Z,14.00
2019-05-03T12:59:10.072Z,14.00
2019-05-03T13:01:50.483Z,14.10
2019-05-03T13:04:24.693Z,14.30
2019-05-03T13:07:00.560Z,14.70
2019-05-03T13:09:29.499Z,15.00
2019-05-03T13:11:59.213Z,15.30
2019-05-03T13:14:28.347Z,15.40
2019-05-03T13:16:57.309Z,15.40
2019-05-03T13:19:26.416Z,15.10
2019-05-03T13:21:55.662Z,15.00
2019-05-03T13:24:25.990Z,14.90
2019-05-03T13:26:56.219Z,14.80
2019-05-03T13:29:25.594Z,14.20
2019-05-03T13:32:01.546Z,14.10
2019-05-03T13:34:25.694Z,14.10
2019-05-03T13:36:54.997Z,14.10
2019-05-03T13:39:26.273Z,14.30
2019-05-03T13:41:54.987Z,14.50
2019-05-03T13:44:24.767Z,14.60
2019-05-03T13:46:55.236Z,14.80
2019-05-03T13:49:26.235Z,14.80
2019-05-03T13:51:56.560Z,15.00
2019-05-03T13:54:25.772Z,15.30
2019-05-03T13:56:55.201Z,15.70
2019-05-03T13:59:24.705Z,15.70
2019-05-03T14:01:54.545Z,15.70
2019-05-03T14:04:23.778Z,15.70
2019-05-03T14:06:52.821Z,15.60
2019-05-03T14:09:21.767Z,15.20
2019-05-03T14:11:50.727Z,14.90
2019-05-03T14:14:19.734Z,14.80
2019-05-03T14:16:48.930Z,14.60
2019-05-03T14:19:25.312Z,14.60
2019-05-03T14:21:55.926Z,14.40
2019-05-03T14:24:25.110Z,14.10
2019-05-03T14:26:55.120Z,13.90
2019-05-03T14:29:25.302Z,13.70
2019-05-03T14:31:54.591Z,13.70
2019-05-03T14:34:25.520Z,13.80
2019-05-03T14:36:55.468Z,13.80
2019-05-03T14:39:25.333Z,14.00
2019-05-03T14:41:55.507Z,14.10
2019-05-03T14:44:25.313Z,14.00
2019-05-03T14:46:58.821Z,13.90
2019-05-03T14:49:25.511Z,13.80
2019-05-03T14:51:56.667Z,13.70
2019-05-03T14:54:26.901Z,13.40
2019-05-03T14:57:14.526Z,13.20
2019-05-03T15:00:16.901Z,12.80
2019-05-03T15:02:51.186Z,12.70
2019-05-03T15:05:20.553Z,12.60
2019-05-03T15:07:49.580Z,12.50
2019-05-03T15:10:19.062Z,12.50
2019-05-03T15:12:48.021Z,12.50
2019-05-03T15:15:17.015Z,12.60
2019-05-03T15:17:46.125Z,12.70
2019-05-03T15:20:15.716Z,13.00
2019-05-03T15:22:45.453Z,13.20
2019-05-03T15:25:15.127Z,13.30
2019-05-03T15:27:44.851Z,13.30
2019-05-03T15:30:15.559Z,13.20
2019-05-03T15:32:56.600Z,13.20
2019-05-03T15:35:15.993Z,13.00
2019-05-03T15:37:45.480Z,12.80
2019-05-03T15:40:15.707Z,12.60
2019-05-03T15:42:49.802Z,12.40
2019-05-03T15:45:36.635Z,12.20
2019-05-03T15:48:17.495Z,12.20
2019-05-03T15:50:46.709Z,12.10
2019-05-03T15:53:15.906Z,12.20
2019-05-03T15:55:44.876Z,12.20
2019-05-03T15:58:15.343Z,12.30
2019-05-03T16:00:46.379Z,12.40
2019-05-03T16:03:17.901Z,12.50
2019-05-03T16:05:46.856Z,12.50
2019-05-03T16:08:15.891Z,12.40
2019-05-03T16:10:45.768Z,12.40
2019-05-03T16:13:14.834Z,12.20
2019-05-03T16:15:44.571Z,12.10
2019-05-03T16:18:14.796Z,12.00
2019-05-03T16:20:45.072Z,11.90
2019-05-03T16:23:15.437Z,11.80
2019-05-03T16:25:44.854Z,11.70
2019-05-03T16:28:20.433Z,11.50
2019-05-03T16:31:10.433Z,11.50
2019-05-03T16:33:39.352Z,11.60
2019-05-03T16:36:09.718Z,11.60
2019-05-03T16:38:38.722Z,11.70
2019-05-03T16:41:09.614Z,11.80
2019-05-03T16:43:38.472Z,11.80
2019-05-03T16:46:07.827Z,11.70
2019-05-03T16:48:37.044Z,11.70
2019-05-03T16:51:09.316Z,11.60
2019-05-03T16:53:38.658Z,11.60
2019-05-03T16:56:07.694Z,11.60
2019-05-03T16:58:36.784Z,11.60
2019-05-03T17:01:05.865Z,11.60
2019-05-03T17:03:59.098Z,11.50
2019-05-03T17:06:39.345Z,11.50
2019-05-03T17:09:24.868Z,11.50
2019-05-03T17:12:06.529Z,11.40
2019-05-03T17:14:35.603Z,11.40
2019-05-03T17:17:07.241Z,11.30
2019-05-03T17:19:36.542Z,11.20
2019-05-03T17:22:05.723Z,11.10
2019-05-03T17:24:35.407Z,11.10
2019-05-03T17:27:04.901Z,11.10
2019-05-03T17:29:35.089Z,11.00
2019-05-03T17:32:04.951Z,11.00
2019-05-03T17:34:34.743Z,11.00
2019-05-03T17:37:04.982Z,10.80
2019-05-03T17:39:54.728Z,10.80
2019-05-03T17:42:41.380Z,10.70
2019-05-03T17:45:10.831Z,10.70
2019-05-03T17:47:39.827Z,10.70
2019-05-03T17:50:08.949Z,10.60
2019-05-03T17:52:47.390Z,10.50
2019-05-03T17:55:29.156Z,10.40
2019-05-03T17:58:15.092Z,10.40
2019-05-03T18:01:01.818Z,10.30
2019-05-03T18:03:34.196Z,10.20
2019-05-03T18:06:14.952Z,10.20
2019-05-03T18:08:59.945Z,10.20
2019-05-03T18:11:34.671Z,10.10
2019-05-03T18:14:05.543Z,10.10
2019-05-03T18:16:35.035Z,10.10
2019-05-03T18:19:05.227Z,10.10
2019-05-03T18:21:34.386Z,10.00
2019-05-03T18:24:04.949Z,10.00
2019-05-03T18:26:35.544Z,10.00
2019-05-03T18:29:05.792Z,9.90
2019-05-03T18:31:34.922Z,9.90
2019-05-03T18:34:06.263Z,9.90
2019-05-03T18:36:34.753Z,9.90
2019-05-03T18:39:06.742Z,9.80
2019-05-03T18:41:35.724Z,9.80
2019-05-03T18:44:22.943Z,9.80
2019-05-03T18:46:55.116Z,9.80
2019-05-03T18:49:24.819Z,9.70
2019-05-03T18:51:55.374Z,9.70
2019-05-03T18:54:24.749Z,9.80
2019-05-03T18:56:55.556Z,9.70
2019-05-03T18:59:24.950Z,9.70
2019-05-03T19:01:55.250Z,9.70
2019-05-03T19:04:35.051Z,9.70
2019-05-03T19:07:06.620Z,9.70
2019-05-03T19:09:49.200Z,9.60
2019-05-03T19:12:26.527Z,9.60
2019-05-03T19:14:55.905Z,9.60
2019-05-03T19:17:42.742Z,9.60
2019-05-03T19:20:16.961Z,9.50
2019-05-03T19:22:46.238Z,9.50
2019-05-03T19:25:15.347Z,9.50
2019-05-03T19:27:45.133Z,9.50
2019-05-03T19:30:14.945Z,9.40
2019-05-03T19:32:45.036Z,9.40
2019-05-03T19:35:15.730Z,9.40
2019-05-03T19:37:47.008Z,9.40
2019-05-03T19:40:17.709Z,9.40
2019-05-03T19:42:46.805Z,9.40
2019-05-03T19:45:15.922Z,9.50
2019-05-03T19:47:45.043Z,9.40
2019-05-03T19:50:15.744Z,9.40
2019-05-03T19:53:02.531Z,9.40
2019-05-03T19:55:31.592Z,9.30
2019-05-03T19:58:00.720Z,9.40
2019-05-03T20:00:40.102Z,9.40
2019-05-03T20:03:15.472Z,9.40
2019-05-03T20:05:51.415Z,9.30
2019-05-03T20:08:25.284Z,9.30
2019-05-03T20:11:16.428Z,9.30
2019-05-03T20:13:47.963Z,9.30
2019-05-03T20:16:17.287Z,9.20
2019-05-03T20:18:46.589Z,9.20
2019-05-03T20:21:16.062Z,9.20
2019-05-03T20:23:47.087Z,9.10
2019-05-03T20:26:15.933Z,9.00
2019-05-03T20:28:48.591Z,8.90
2019-05-03T20:31:18.497Z,8.80
2019-05-03T20:33:47.602Z,8.70
2019-05-03T20:36:17.556Z,8.60
2019-05-03T20:38:46.572Z,8.50
2019-05-03T20:41:15.703Z,8.50
2019-05-03T20:44:00.511Z,8.50
2019-05-03T20:46:44.864Z,8.50
2019-05-03T20:49:15.016Z,8.50
2019-05-03T20:51:45.333Z,8.40
2019-05-03T20:54:16.564Z,8.50
2019-05-03T20:56:45.739Z,8.50
2019-05-03T20:59:14.853Z,8.50
2019-05-03T21:01:45.295Z,8.40
2019-05-03T21:04:15.422Z,8.40
2019-05-03T21:06:45.516Z,8.30
2019-05-03T21:09:15.038Z,8.30
2019-05-03T21:11:44.816Z,8.20
2019-05-03T21:14:15.591Z,8.10
2019-05-03T21:16:54.440Z,8.10
2019-05-03T21:19:40.281Z,8.00
2019-05-03T21:22:21.019Z,8.10
2019-05-03T21:25:06.472Z,8.10
2019-05-03T21:27:35.623Z,8.20
2019-05-03T21:30:05.258Z,8.20
2019-05-03T21:32:35.132Z,8.20
2019-05-03T21:35:05.421Z,8.20
2019-05-03T21:37:34.906Z,8.20
2019-05-03T21:40:05.123Z,8.10
2019-05-03T21:42:35.131Z,8.10
2019-05-03T21:45:05.903Z,8.10
2019-05-03T21:47:54.801Z,8.10
2019-05-03T21:50:25.034Z,8.20
2019-05-03T21:52:57.500Z,8.20
2019-05-03T21:55:27.030Z,8.30
2019-05-03T21:57:55.975Z,8.40
2019-05-03T22:00:28.090Z,8.40
2019-05-03T22:02:57.121Z,8.40
2019-05-03T22:05:27.404Z,8.50
2019-05-03T22:07:56.353Z,8.50
2019-05-03T22:10:25.615Z,8.50
2019-05-03T22:12:55.986Z,8.50
2019-05-03T22:15:41.168Z,8.50
2019-05-03T22:18:24.498Z,8.50
2019-05-03T22:21:18.454Z,8.50
2019-05-03T22:23:56.270Z,8.50
2019-05-03T22:26:44.808Z,8.50
2019-05-03T22:29:17.192Z,8.50
2019-05-03T22:31:46.421Z,8.50
2019-05-03T22:34:15.470Z,8.50
2019-05-03T22:36:46.689Z,8.50
2019-05-03T22:39:15.853Z,8.50
2019-05-03T22:41:45.322Z,8.50
2019-05-03T22:44:16.990Z,8.50
2019-05-03T22:46:45.083Z,8.50
2019-05-03T22:49:15.607Z,8.50
2019-05-03T22:51:45.243Z,8.50
2019-05-03T22:54:15.367Z,8.50
2019-05-03T22:56:44.887Z,8.50
2019-05-03T22:59:14.926Z,8.50
2019-05-03T23:01:45.810Z,8.40
2019-05-03T23:04:14.970Z,8.30
2019-05-03T23:06:46.708Z,8.30
2019-05-03T23:09:15.999Z,8.30
2019-05-03T23:11:45.134Z,8.30
2019-05-03T23:14:15.059Z,8.20
2019-05-03T23:16:45.123Z,8.20
2019-05-03T23:19:15.082Z,8.20
2019-05-03T23:22:09.609Z,8.10
2019-05-03T23:24:38.515Z,8.10
2019-05-03T23:27:07.569Z,8.10
2019-05-03T23:29:36.512Z,8.10
2019-05-03T23:32:05.571Z,8.00
2019-05-03T23:34:35.084Z,7.90
2019-05-03T23:37:05.460Z,7.90
2019-05-03T23:39:34.606Z,7.80
2019-05-03T23:42:05.069Z,7.80
2019-05-03T23:44:35.117Z,7.80
2019-05-03T23:47:14.554Z,7.70
2019-05-03T23:49:44.597Z,7.70
2019-05-03T23:52:31.662Z,7.70
2019-05-03T23:55:01.587Z,7.60
2019-05-03T23:57:30.584Z,7.60
2019-05-03T23:59:59.508Z,7.60
